EVLA/LPX METAR and TAF weather

Enter ICAO airport designator
Station Type Date Time Source
EVLA METAR 2019/06/26 21:50 UTC NOAA

EVLA 262150Z AUTO 36003KT 330V030 9999 BKN068/// 19/16 Q1009


Station Type Date Time Source
EVLA Decoded METAR 2019/06/26 21:50 UTC NOAA

Liepaja International Airport, Latvia (EVLA) 56-31N 021-05E
Jun 26, 2019 - 05:50 PM EDT / 2019.06.26 2150 UTC
Wind: from the N (360 degrees) at 3 MPH (3 KT) (direction variable):0
Visibility: greater than 7 mile(s):0
Sky conditions: mostly cloudy
Temperature: 66 F (19 C)
Dew Point: 60 F (16 C)
Relative Humidity: 82%
Pressure (altimeter): 29.80 in. Hg (1009 hPa)
ob: EVLA 262150Z AUTO 36003KT 330V030 9999 BKN068/// 19/16 Q1009
cycle: 22

Station Type Date Time Source
EVLA TAF 2019/06/26 21:22 UTC NOAA

TAF EVLA 262002Z 2621/2721 05007KT 9999 SCT040
TEMPO 2621/2624 2000 TSRA BKN020CB
BECMG 2700/2702 33012KT
TEMPO 2703/2721 33020G30KT

Example: see airport list